Time;durP1;ratioP1;P1;durP2;ratioP2;P2;SDS_P1;SDS_P2;PMS_P1;PMS_P2;Temp;Humidity;BMP_temperature;BMP_pressure;BME280_temperature;BME280_humidity;BME280_pressure;Samples;Min_cycle;Max_cycle;Signal;HPM_P1;HPM_P2
2021/03/21 00:00:12;;;;;;;7.20;4.33;;;0.50;99.90;;;;;;5009749;28;20457;-46
2021/03/21 00:02:38;;;;;;;7.67;4.60;;;0.40;99.90;;;;;;5010372;28;20458;-46
2021/03/21 00:05:06;;;;;;;6.70;4.17;;;0.40;99.90;;;;;;5008030;28;20452;-46
2021/03/21 00:07:33;;;;;;;8.23;4.07;;;0.40;99.90;;;;;;5010326;28;21017;-46
2021/03/21 00:10:00;;;;;;;6.67;4.23;;;0.50;99.90;;;;;;5072768;22;20502;-49
2021/03/21 00:12:26;;;;;;;8.37;4.40;;;0.60;99.90;;;;;;5056687;28;20452;-50
2021/03/21 00:14:53;;;;;;;5.07;3.50;;;0.80;99.90;;;;;;5058880;28;20439;-50
2021/03/21 00:17:19;;;;;;;7.63;3.87;;;0.70;99.90;;;;;;5058659;28;20488;-49
2021/03/21 00:19:46;;;;;;;6.30;4.00;;;0.60;99.90;;;;;;5034613;28;20464;-50
2021/03/21 00:22:12;;;;;;;8.40;4.00;;;0.70;99.90;;;;;;5028698;28;20526;-49
2021/03/21 00:24:40;;;;;;;8.27;3.67;;;0.60;99.90;;;;;;5027795;28;20455;-50
2021/03/21 00:27:07;;;;;;;6.20;3.93;;;0.50;99.90;;;;;;5040356;28;20533;-49
2021/03/21 00:29:33;;;;;;;7.20;4.40;;;0.50;99.90;;;;;;5046579;28;20484;-49
2021/03/21 00:32:00;;;;;;;5.00;3.70;;;0.50;99.90;;;;;;5045958;28;20457;-49
2021/03/21 00:34:26;;;;;;;6.50;3.60;;;0.50;99.90;;;;;;5047749;28;20483;-49
2021/03/21 00:36:53;;;;;;;7.77;3.80;;;0.60;99.90;;;;;;5049120;28;20486;-49
2021/03/21 00:39:19;;;;;;;5.80;3.77;;;0.70;99.90;;;;;;5049111;28;20470;-49
2021/03/21 00:41:47;;;;;;;5.50;3.77;;;0.60;99.90;;;;;;5037879;28;20464;-49
2021/03/21 00:44:13;;;;;;;5.40;3.43;;;0.70;99.90;;;;;;5032495;28;20527;-49
2021/03/21 00:46:40;;;;;;;6.40;3.77;;;0.90;99.90;;;;;;5033145;28;20450;-50
2021/03/21 00:49:07;;;;;;;6.43;3.30;;;0.80;99.90;;;;;;5033450;28;20475;-49
2021/03/21 00:51:33;;;;;;;5.43;3.53;;;0.50;99.90;;;;;;5033228;28;20454;-49
2021/03/21 00:53:59;;;;;;;5.70;3.53;;;0.40;99.90;;;;;;5033678;28;20937;-50
2021/03/21 00:56:31;;;;;;;5.40;3.20;;;0.30;99.90;;;;;;5031233;28;20898;-49
2021/03/21 00:58:58;;;;;;;5.90;3.30;;;0.60;99.90;;;;;;5033104;28;20470;-49
2021/03/21 01:01:26;;;;;;;6.40;3.60;;;0.50;99.90;;;;;;5029776;28;20455;-50
2021/03/21 01:03:53;;;;;;;5.50;3.43;;;0.50;99.90;;;;;;5027913;28;21016;-50
2021/03/21 01:06:20;;;;;;;6.80;4.10;;;0.60;99.90;;;;;;5031110;28;20446;-49
2021/03/21 01:08:47;;;;;;;7.57;3.80;;;0.70;99.90;;;;;;5032384;28;20483;-50
2021/03/21 01:11:16;;;;;;;5.17;3.30;;;0.80;99.90;;;;;;5032157;28;20455;-48
2021/03/21 01:13:43;;;;;;;8.73;4.37;;;0.70;99.90;;;;;;5031740;28;20458;-49
2021/03/21 01:16:14;;;;;;;5.93;3.87;;;0.50;99.90;;;;;;5025205;28;20500;-49
2021/03/21 01:18:41;;;;;;;5.50;3.47;;;0.50;99.90;;;;;;5029129;28;20479;-49
2021/03/21 01:21:11;;;;;;;6.20;3.70;;;0.30;99.90;;;;;;5030775;28;20514;-49
2021/03/21 01:23:40;;;;;;;7.60;4.10;;;0.40;99.90;;;;;;5032185;28;20500;-49
2021/03/21 01:26:07;;;;;;;5.90;3.47;;;0.40;99.90;;;;;;5032361;28;20450;-49
2021/03/21 01:28:36;;;;;;;7.07;3.90;;;0.50;99.90;;;;;;5032525;28;20470;-49
2021/03/21 01:31:06;;;;;;;5.53;3.60;;;0.70;99.90;;;;;;5032435;28;20454;-50
2021/03/21 01:33:34;;;;;;;6.50;3.97;;;0.50;99.90;;;;;;5031666;28;20515;-49
2021/03/21 01:36:03;;;;;;;5.33;3.33;;;0.60;99.90;;;;;;5031302;28;20996;-49
2021/03/21 01:38:30;;;;;;;5.27;3.57;;;0.70;99.90;;;;;;5032265;28;20483;-49
2021/03/21 01:41:00;;;;;;;5.30;3.60;;;0.70;99.90;;;;;;5032149;28;20605;-50
2021/03/21 01:43:32;;;;;;;6.57;3.80;;;0.60;99.90;;;;;;5032261;28;20484;-48
2021/03/21 01:45:59;;;;;;;5.73;3.77;;;0.70;99.90;;;;;;5030643;28;20934;-49
2021/03/21 01:48:38;;;;;;;6.00;3.53;;;0.70;99.90;;;;;;5032165;28;20454;-49
2021/03/21 01:51:09;;;;;;;7.53;3.73;;;0.90;99.90;;;;;;5032159;28;20545;-49
2021/03/21 01:53:39;;;;;;;5.30;3.47;;;0.70;99.90;;;;;;5031969;28;20815;-49
2021/03/21 01:56:07;;;;;;;5.53;3.30;;;0.60;99.90;;;;;;5031433;28;20565;-49
2021/03/21 01:58:35;;;;;;;6.73;3.70;;;0.60;99.90;;;;;;5027614;28;20528;-49
2021/03/21 02:01:08;;;;;;;8.37;5.10;;;0.50;99.90;;;;;;5029552;28;21283;-49
2021/03/21 02:03:35;;;;;;;9.23;5.40;;;0.30;99.90;;;;;;5032102;28;20455;-50
2021/03/21 02:06:20;;;;;;;7.93;5.20;;;0.20;99.90;;;;;;5031760;28;20452;-49
2021/03/21 02:08:52;;;;;;;9.97;5.53;;;0.20;99.90;;;;;;5031289;28;20518;-50
2021/03/21 02:11:36;;;;;;;9.70;5.83;;;0.20;99.90;;;;;;5031939;28;20459;-49
2021/03/21 02:14:13;;;;;;;10.83;5.90;;;0.30;99.90;;;;;;5032275;28;20451;-49
2021/03/21 02:16:46;;;;;;;10.23;5.90;;;0.30;99.90;;;;;;5031583;28;20512;-49
2021/03/21 02:19:40;;;;;;;11.10;5.73;;;0.30;99.90;;;;;;5031864;28;20557;-49
2021/03/21 02:22:12;;;;;;;12.20;5.70;;;0.30;99.90;;;;;;5027751;28;20524;-49
2021/03/21 02:25:22;;;;;;;9.10;6.00;;;0.50;99.90;;;;;;5031429;28;20444;-50
2021/03/21 02:28:09;;;;;;;8.90;5.43;;;0.50;99.90;;;;;;5031485;28;20450;-50
2021/03/21 02:30:42;;;;;;;10.67;5.90;;;0.40;99.90;;;;;;5031697;28;20531;-50
2021/03/21 02:33:16;;;;;;;10.97;6.17;;;0.50;99.90;;;;;;5031639;28;20513;-49
2021/03/21 02:35:49;;;;;;;8.37;5.40;;;0.50;99.90;;;;;;5031157;28;20484;-50
2021/03/21 02:38:23;;;;;;;9.30;4.90;;;0.60;99.90;;;;;;5030542;28;20511;-50
2021/03/21 02:40:55;;;;;;;9.97;5.13;;;0.70;99.90;;;;;;5026366;28;20530;-49
2021/03/21 02:43:26;;;;;;;8.70;5.07;;;0.60;99.90;;;;;;5038993;28;20519;-49
2021/03/21 02:45:59;;;;;;;8.67;4.70;;;0.80;99.90;;;;;;5050883;28;20446;-50
2021/03/21 02:48:30;;;;;;;6.80;4.60;;;0.70;99.90;;;;;;5048304;28;20458;-50
2021/03/21 02:51:00;;;;;;;9.10;4.50;;;0.70;99.90;;;;;;5042295;28;20450;-49
2021/03/21 02:53:31;;;;;;;7.53;4.73;;;0.70;99.90;;;;;;5051663;28;20441;-49
2021/03/21 02:56:02;;;;;;;7.00;4.10;;;0.80;99.90;;;;;;5050627;28;20984;-50
2021/03/21 02:58:33;;;;;;;6.93;4.83;;;0.80;99.90;;;;;;5050713;28;20515;-49
2021/03/21 03:01:06;;;;;;;8.90;4.60;;;0.70;99.90;;;;;;5050728;28;20465;-49
2021/03/21 03:03:34;;;;;;;8.40;4.33;;;0.80;99.90;;;;;;5040356;28;20458;-50
2021/03/21 03:06:06;;;;;;;7.03;4.20;;;0.70;99.90;;;;;;5039283;28;20453;-49
2021/03/21 03:08:38;;;;;;;10.13;4.33;;;0.80;99.90;;;;;;5050966;28;20478;-49
2021/03/21 03:11:10;;;;;;;7.57;4.73;;;0.70;99.90;;;;;;5034165;28;20451;-50
2021/03/21 03:13:40;;;;;;;6.77;4.20;;;0.50;99.90;;;;;;5050072;28;20459;-49
2021/03/21 03:16:15;;;;;;;8.90;5.20;;;0.50;99.90;;;;;;5050590;28;20498;-50
2021/03/21 03:18:57;;;;;;;11.50;5.57;;;0.40;99.90;;;;;;5030716;28;20484;-49
2021/03/21 03:21:32;;;;;;;7.57;4.47;;;0.40;99.90;;;;;;5045053;28;20454;-49
2021/03/21 03:24:08;;;;;;;7.27;4.40;;;0.80;99.90;;;;;;5051122;28;20454;-49
2021/03/21 03:26:48;;;;;;;6.33;4.00;;;0.70;99.90;;;;;;5046436;28;20463;-49
2021/03/21 03:29:19;;;;;;;9.07;4.60;;;0.80;99.90;;;;;;5011847;28;21017;-49
2021/03/21 03:31:50;;;;;;;7.40;4.30;;;0.70;99.90;;;;;;5037808;28;20450;-49
2021/03/21 03:34:16;;;;;;;6.63;3.93;;;0.60;99.90;;;;;;5031154;28;20906;-48
2021/03/21 03:36:44;;;;;;;9.43;3.97;;;0.40;99.90;;;;;;5030738;28;20483;-49
2021/03/21 03:39:11;;;;;;;8.13;4.53;;;0.50;99.90;;;;;;5030937;28;20475;-49
2021/03/21 03:41:40;;;;;;;6.87;4.17;;;0.30;99.90;;;;;;5046298;28;20507;-49
2021/03/21 03:44:24;;;;;;;8.10;4.70;;;0.30;99.90;;;;;;5050573;28;20820;-49
2021/03/21 03:46:59;;;;;;;8.50;4.23;;;0.40;99.90;;;;;;5029934;28;20960;-49
2021/03/21 03:49:39;;;;;;;8.50;4.30;;;0.60;99.90;;;;;;5030592;28;20472;-49
2021/03/21 03:52:24;;;;;;;6.97;4.03;;;0.60;99.90;;;;;;5049899;28;20456;-49
2021/03/21 03:54:57;;;;;;;7.67;4.40;;;0.50;99.90;;;;;;5050377;28;20865;-50
2021/03/21 03:57:29;;;;;;;7.30;4.00;;;0.50;99.90;;;;;;5050588;28;20486;-49
2021/03/21 04:00:20;;;;;;;5.70;3.70;;;0.50;99.90;;;;;;5046079;28;20501;-49
2021/03/21 04:02:59;;;;;;;7.47;4.47;;;0.50;99.90;;;;;;5041156;28;20444;-49
2021/03/21 04:05:32;;;;;;;7.70;4.17;;;0.50;99.90;;;;;;5049157;28;20453;-49
2021/03/21 04:08:04;;;;;;;7.93;4.20;;;0.40;99.90;;;;;;5028678;28;20500;-49
2021/03/21 04:10:36;;;;;;;9.00;3.90;;;0.40;99.90;;;;;;5050707;28;20505;-49
2021/03/21 04:13:08;;;;;;;6.03;4.10;;;0.30;99.90;;;;;;5038703;28;20467;-49
2021/03/21 04:15:39;;;;;;;7.70;4.60;;;0.30;99.90;;;;;;5034030;28;20851;-48
2021/03/21 04:18:13;;;;;;;7.73;4.33;;;0.30;99.90;;;;;;5033743;28;20453;-49
2021/03/21 04:20:44;;;;;;;6.13;4.13;;;0.10;99.90;;;;;;5030181;28;20527;-49
2021/03/21 04:23:16;;;;;;;8.20;4.27;;;0.20;99.90;;;;;;5033617;28;20937;-49
2021/03/21 04:25:47;;;;;;;7.50;4.10;;;0.10;99.90;;;;;;5033683;28;20458;-49
2021/03/21 04:28:17;;;;;;;7.00;4.30;;;0.00;99.90;;;;;;5033901;28;20462;-49
2021/03/21 04:30:48;;;;;;;8.67;4.60;;;-0.10;99.90;;;;;;5033631;28;20458;-49
2021/03/21 04:33:19;;;;;;;6.90;4.10;;;0.20;99.90;;;;;;5033760;28;20453;-49
2021/03/21 04:35:50;;;;;;;8.63;4.53;;;0.30;99.90;;;;;;5033356;28;20835;-49
2021/03/21 04:38:21;;;;;;;9.47;4.67;;;0.30;99.90;;;;;;5033857;28;20806;-49
2021/03/21 04:40:49;;;;;;;10.30;4.97;;;0.10;99.90;;;;;;5033816;28;20501;-49
2021/03/21 04:43:22;;;;;;;7.67;4.50;;;0.10;99.90;;;;;;5033444;28;20500;-49
2021/03/21 04:45:54;;;;;;;7.23;4.30;;;0.20;99.90;;;;;;5033705;28;20449;-49
2021/03/21 04:48:24;;;;;;;8.37;4.30;;;0.30;99.90;;;;;;5033665;28;20451;-50
2021/03/21 04:50:58;;;;;;;9.03;4.70;;;0.30;99.90;;;;;;5033222;28;20457;-49
2021/03/21 04:53:35;;;;;;;8.07;4.30;;;0.20;99.90;;;;;;5048618;28;21138;-50
2021/03/21 04:56:07;;;;;;;6.57;4.00;;;0.20;99.90;;;;;;5033345;28;20481;-49
2021/03/21 04:58:37;;;;;;;7.20;4.10;;;0.50;99.90;;;;;;5050180;28;20480;-49
2021/03/21 05:01:10;;;;;;;9.30;4.70;;;0.40;99.90;;;;;;5041760;28;20450;-49
2021/03/21 05:03:41;;;;;;;10.80;4.30;;;0.20;99.90;;;;;;5052312;28;20451;-49
2021/03/21 05:06:14;;;;;;;7.07;3.73;;;0.10;99.90;;;;;;5053349;28;20943;-49
2021/03/21 05:08:47;;;;;;;7.37;4.20;;;0.10;99.90;;;;;;5053565;28;20476;-49
2021/03/21 05:11:16;;;;;;;7.00;4.10;;;0.00;99.90;;;;;;5053149;28;20505;-49
2021/03/21 05:13:49;;;;;;;8.03;4.80;;;0.00;99.90;;;;;;5050945;28;20455;-49
2021/03/21 05:16:22;;;;;;;7.80;4.30;;;0.10;99.90;;;;;;5043854;28;20502;-49
2021/03/21 05:18:53;;;;;;;8.30;4.33;;;0.20;99.90;;;;;;5051340;28;20550;-49
2021/03/21 05:21:25;;;;;;;7.23;4.17;;;0.10;99.90;;;;;;5035148;28;20799;-49
2021/03/21 05:23:59;;;;;;;7.07;3.80;;;0.10;99.90;;;;;;5051249;28;20460;-50
2021/03/21 05:26:31;;;;;;;6.37;4.10;;;0.20;99.90;;;;;;5052808;28;20447;-49
2021/03/21 05:29:23;;;;;;;8.20;4.40;;;0.10;99.90;;;;;;5052719;28;20559;-49
2021/03/21 05:31:51;;;;;;;8.10;4.30;;;0.10;99.90;;;;;;5052583;28;20464;-48
2021/03/21 05:34:19;;;;;;;6.70;4.20;;;0.20;99.90;;;;;;5052743;28;20445;-49
2021/03/21 05:37:00;;;;;;;7.33;4.23;;;0.10;99.90;;;;;;5052596;28;20488;-49
2021/03/21 05:39:42;;;;;;;11.13;4.80;;;0.20;99.90;;;;;;5052210;28;20472;-49
2021/03/21 05:42:49;;;;;;;7.50;4.27;;;0.10;99.90;;;;;;5052638;28;20875;-49
2021/03/21 05:45:51;;;;;;;7.03;4.00;;;0.20;99.90;;;;;;5052089;28;20461;-49
2021/03/21 05:48:36;;;;;;;7.07;3.80;;;0.20;99.90;;;;;;5052028;28;21035;-50
2021/03/21 05:51:29;;;;;;;6.53;3.90;;;0.30;99.90;;;;;;5052119;28;20977;-50
2021/03/21 05:54:30;;;;;;;6.60;4.50;;;0.40;99.90;;;;;;5012613;28;20455;-49
2021/03/21 05:57:31;;;;;;;8.00;3.97;;;0.50;99.90;;;;;;5012479;28;20501;-49
2021/03/21 06:00:22;;;;;;;6.53;4.40;;;0.80;99.90;;;;;;4969635;28;20515;-49
2021/03/21 06:03:27;;;;;;;7.83;4.80;;;0.60;99.90;;;;;;5047214;28;20487;-49
2021/03/21 06:06:36;;;;;;;9.30;5.10;;;0.60;99.90;;;;;;5004104;28;20969;-49
2021/03/21 06:09:21;;;;;;;7.40;4.33;;;0.40;99.90;;;;;;5030667;28;21012;-49
2021/03/21 06:11:57;;;;;;;9.73;5.37;;;0.40;99.90;;;;;;5052121;28;20446;-49
2021/03/21 06:14:56;;;;;;;8.70;4.60;;;0.50;99.90;;;;;;5045276;28;20445;-49
2021/03/21 06:17:49;;;;;;;7.97;3.87;;;0.50;99.90;;;;;;5033030;28;20485;-49
2021/03/21 06:20:54;;;;;;;8.10;4.70;;;0.40;99.90;;;;;;5051594;28;21168;-49
2021/03/21 06:23:51;;;;;;;9.90;5.30;;;0.40;99.90;;;;;;5023920;28;20460;-48
2021/03/21 06:26:22;;;;;;;9.67;5.17;;;0.30;99.90;;;;;;5012206;28;20459;-49
2021/03/21 06:29:24;;;;;;;8.23;4.70;;;0.50;99.90;;;;;;5012424;28;20470;-49
2021/03/21 06:32:20;;;;;;;8.33;5.23;;;0.60;99.90;;;;;;5011589;28;20438;-49
2021/03/21 06:34:52;;;;;;;8.83;5.30;;;0.70;99.90;;;;;;5012057;28;20462;-49
2021/03/21 06:37:49;;;;;;;8.17;4.60;;;0.60;99.90;;;;;;5039038;28;20493;-50
2021/03/21 06:40:50;;;;;;;7.40;4.40;;;0.60;99.90;;;;;;5051506;28;20469;-49
2021/03/21 06:43:31;;;;;;;6.10;3.73;;;0.60;99.90;;;;;;5000068;28;20445;-49
2021/03/21 06:46:04;;;;;;;9.53;4.17;;;0.60;99.90;;;;;;5050830;28;20455;-48
2021/03/21 06:48:55;;;;;;;10.03;4.77;;;0.60;99.90;;;;;;5050697;28;20473;-49
2021/03/21 06:51:58;;;;;;;8.40;4.37;;;0.60;99.90;;;;;;5073836;22;20499;-46
2021/03/21 06:54:41;;;;;;;7.00;4.00;;;0.60;99.90;;;;;;5033409;28;20451;-46
2021/03/21 06:58:02;;;;;;;7.53;4.63;;;0.70;99.90;;;;;;5030935;28;20902;-47
2021/03/21 07:01:07;;;;;;;6.50;3.97;;;0.80;99.90;;;;;;5032247;28;20456;-47
2021/03/21 07:04:10;;;;;;;8.37;4.67;;;1.20;99.90;;;;;;5011837;28;20494;-46
2021/03/21 07:07:32;;;;;;;4.63;3.30;;;1.40;99.90;;;;;;5011333;28;20452;-47
2021/03/21 07:10:55;;;;;;;5.97;3.50;;;1.50;99.90;;;;;;5037763;28;20452;-46
2021/03/21 07:13:50;;;;;;;5.63;3.80;;;1.60;99.90;;;;;;5011307;28;20463;-47
2021/03/21 07:17:00;;;;;;;6.57;3.60;;;1.50;99.90;;;;;;5020078;28;20568;-46
2021/03/21 07:20:18;;;;;;;5.60;3.87;;;1.60;99.90;;;;;;5022009;28;20493;-46
2021/03/21 07:23:27;;;;;;;6.70;3.87;;;1.70;99.90;;;;;;4968624;28;20545;-47
2021/03/21 07:26:28;;;;;;;8.30;4.30;;;1.70;99.90;;;;;;5016956;28;20458;-47
2021/03/21 07:29:24;;;;;;;6.27;4.30;;;1.60;99.90;;;;;;5028771;28;20454;-47
2021/03/21 07:32:11;;;;;;;7.23;3.70;;;1.80;99.90;;;;;;5014851;28;20518;-47
2021/03/21 07:35:09;;;;;;;6.33;4.00;;;1.80;99.90;;;;;;5030198;28;20443;-46
2021/03/21 07:37:43;;;;;;;7.63;4.57;;;1.90;99.90;;;;;;5024606;28;20483;-46
2021/03/21 07:40:24;;;;;;;9.77;4.77;;;1.90;99.90;;;;;;5030505;28;20457;-46
2021/03/21 07:43:08;;;;;;;8.93;4.60;;;1.70;99.90;;;;;;5025520;28;20473;-46
2021/03/21 07:45:53;;;;;;;5.10;3.67;;;1.90;99.90;;;;;;5014893;28;20457;-47
2021/03/21 07:48:36;;;;;;;6.97;4.50;;;1.70;99.90;;;;;;5028455;28;20516;-46
2021/03/21 07:51:18;;;;;;;8.43;4.73;;;1.90;99.90;;;;;;5016003;28;20452;-46
2021/03/21 07:53:55;;;;;;;11.13;4.77;;;2.00;99.90;;;;;;5015257;28;20549;-46
2021/03/21 07:56:33;;;;;;;11.37;5.00;;;1.90;99.90;;;;;;5029202;28;20571;-46
2021/03/21 07:59:04;;;;;;;12.23;5.80;;;1.90;99.90;;;;;;5033169;28;20827;-46
2021/03/21 08:01:32;;;;;;;11.13;4.80;;;2.10;99.90;;;;;;5019786;28;20481;-46
2021/03/21 08:04:06;;;;;;;6.50;4.40;;;2.10;99.90;;;;;;5014513;28;20448;-46
2021/03/21 08:06:38;;;;;;;9.17;4.70;;;2.10;99.90;;;;;;5024410;28;20460;-47
2021/03/21 08:09:18;;;;;;;7.87;3.70;;;2.40;99.90;;;;;;5029075;28;20479;-47
2021/03/21 08:11:50;;;;;;;7.87;4.53;;;2.40;99.90;;;;;;5029920;28;20479;-47
2021/03/21 08:14:25;;;;;;;7.73;4.37;;;2.40;99.90;;;;;;5021522;28;20478;-47
2021/03/21 08:16:57;;;;;;;5.87;4.17;;;2.40;99.90;;;;;;5026492;28;20511;-47
2021/03/21 08:19:31;;;;;;;5.57;4.00;;;2.60;99.90;;;;;;5030524;28;20468;-47
2021/03/21 08:21:58;;;;;;;5.90;4.37;;;2.80;99.90;;;;;;5025978;28;20496;-47
2021/03/21 08:24:33;;;;;;;5.83;4.13;;;2.90;99.90;;;;;;5029730;28;20456;-48
2021/03/21 08:27:02;;;;;;;8.13;4.50;;;3.00;99.90;;;;;;5033927;28;20564;-47
2021/03/21 08:29:49;;;;;;;6.40;4.17;;;3.00;99.90;;;;;;5029042;28;20494;-47
2021/03/21 08:32:17;;;;;;;6.97;4.70;;;3.00;99.90;;;;;;5028312;28;20480;-48
2021/03/21 08:34:44;;;;;;;5.93;3.70;;;3.10;99.90;;;;;;5018169;28;20452;-47
2021/03/21 08:37:26;;;;;;;5.63;4.03;;;3.30;99.90;;;;;;5029271;28;20481;-47
2021/03/21 08:39:56;;;;;;;6.30;4.30;;;3.40;99.90;;;;;;5021602;28;20498;-47
2021/03/21 08:42:33;;;;;;;6.53;3.77;;;3.50;99.90;;;;;;5027608;28;20479;-47
2021/03/21 08:45:29;;;;;;;5.00;3.60;;;3.40;99.50;;;;;;5033262;28;20440;-47
2021/03/21 08:48:16;;;;;;;6.90;4.30;;;3.50;99.90;;;;;;5032901;28;20453;-47
2021/03/21 08:50:46;;;;;;;7.00;4.30;;;3.50;99.20;;;;;;5015648;28;20468;-47
2021/03/21 08:53:30;;;;;;;7.57;3.83;;;3.50;99.90;;;;;;5015238;28;20964;-47
2021/03/21 08:56:17;;;;;;;6.30;3.80;;;3.60;99.40;;;;;;5017570;28;20817;-48
2021/03/21 08:58:44;;;;;;;6.00;3.70;;;3.50;99.50;;;;;;5026500;28;20502;-47
2021/03/21 09:01:17;;;;;;;5.77;3.60;;;3.40;99.00;;;;;;5023028;28;20458;-47
2021/03/21 09:03:46;;;;;;;6.20;4.07;;;3.40;99.50;;;;;;5025876;28;20467;-47
2021/03/21 09:06:29;;;;;;;7.17;4.50;;;3.30;99.70;;;;;;5024249;28;20474;-47
2021/03/21 09:09:15;;;;;;;7.33;4.80;;;3.30;99.90;;;;;;5024102;28;20470;-47
2021/03/21 09:11:46;;;;;;;10.60;4.63;;;3.20;99.90;;;;;;5025095;28;20483;-47
2021/03/21 09:14:19;;;;;;;6.13;4.27;;;3.20;99.90;;;;;;5028558;28;20535;-47
2021/03/21 09:16:57;;;;;;;11.20;4.30;;;3.20;99.90;;;;;;5026611;28;20572;-47
2021/03/21 09:19:27;;;;;;;6.57;4.67;;;3.20;99.90;;;;;;5026892;28;20469;-47
2021/03/21 09:21:54;;;;;;;6.93;4.30;;;3.30;99.90;;;;;;5029468;28;20470;-47
2021/03/21 09:24:27;;;;;;;7.07;4.23;;;3.30;99.90;;;;;;5032936;28;20452;-47
2021/03/21 09:26:55;;;;;;;6.97;4.17;;;3.30;99.90;;;;;;5019857;28;20954;-48
2021/03/21 09:29:37;;;;;;;8.10;4.00;;;3.60;99.90;;;;;;5012760;28;20457;-47
2021/03/21 09:32:10;;;;;;;8.03;4.00;;;3.40;99.90;;;;;;5015716;28;20476;-46
2021/03/21 09:34:50;;;;;;;10.37;4.60;;;3.50;99.90;;;;;;5017745;28;20546;-47
2021/03/21 09:37:22;;;;;;;9.80;4.93;;;3.50;99.90;;;;;;5018971;28;20519;-47
2021/03/21 09:40:01;;;;;;;7.80;4.80;;;3.60;99.40;;;;;;5027168;28;20998;-47
2021/03/21 09:42:28;;;;;;;6.43;3.93;;;3.80;98.60;;;;;;5014037;28;21091;-47
2021/03/21 09:44:56;;;;;;;7.57;4.50;;;3.80;99.10;;;;;;5018137;28;20546;-47
2021/03/21 09:47:30;;;;;;;7.80;5.13;;;3.90;97.50;;;;;;5014796;28;20455;-47
2021/03/21 09:50:11;;;;;;;10.17;4.80;;;4.00;97.90;;;;;;5017067;28;20213;-48
2021/03/21 09:52:41;;;;;;;8.10;4.30;;;3.90;94.90;;;;;;5014809;28;20499;-48
2021/03/21 09:55:21;;;;;;;7.57;4.07;;;4.00;96.50;;;;;;5016509;28;22329;-47
2021/03/21 09:58:11;;;;;;;6.17;3.87;;;4.00;96.10;;;;;;5013886;28;20555;-47
2021/03/21 10:00:40;;;;;;;4.93;3.60;;;4.20;97.90;;;;;;5017369;28;20513;-48
2021/03/21 10:03:11;;;;;;;4.50;3.33;;;4.30;97.50;;;;;;5014136;28;20492;-48
2021/03/21 10:05:46;;;;;;;4.37;2.97;;;4.50;95.80;;;;;;5012531;28;20493;-48
2021/03/21 10:08:21;;;;;;;6.37;3.60;;;4.40;97.10;;;;;;5012513;28;20471;-48
2021/03/21 10:10:54;;;;;;;5.20;3.50;;;4.40;96.50;;;;;;5011952;28;20452;-47
2021/03/21 10:13:33;;;;;;;5.93;3.73;;;4.30;96.20;;;;;;5017834;28;20468;-47
2021/03/21 10:16:34;;;;;;;5.10;3.17;;;4.40;95.20;;;;;;5018919;28;20460;-47
2021/03/21 10:19:03;;;;;;;4.20;3.20;;;4.30;96.20;;;;;;5014095;28;21236;-48
2021/03/21 10:21:36;;;;;;;5.67;3.40;;;4.30;94.80;;;;;;5003510;28;20492;-48
2021/03/21 10:24:29;;;;;;;4.67;3.50;;;4.10;94.00;;;;;;5001687;28;20511;-47
2021/03/21 10:27:39;;;;;;;6.07;3.42;;;4.00;94.80;;;;;;5005382;28;20541;-47
2021/03/21 10:30:28;;;;;;;5.73;3.43;;;3.80;96.60;;;;;;5014810;28;20632;-47
2021/03/21 10:33:30;;;;;;;4.20;2.60;;;3.70;95.10;;;;;;5018969;28;21030;-47
2021/03/21 10:35:57;;;;;;;5.40;3.33;;;3.90;95.70;;;;;;5016502;28;20469;-47
2021/03/21 10:38:52;;;;;;;6.37;3.53;;;4.00;95.50;;;;;;5022595;28;20464;-47
2021/03/21 10:41:51;;;;;;;6.50;3.90;;;4.20;95.00;;;;;;5023823;28;20571;-46
2021/03/21 10:44:18;;;;;;;7.23;3.93;;;4.00;93.40;;;;;;5024043;28;21131;-47
2021/03/21 10:46:52;;;;;;;6.83;3.90;;;3.90;94.30;;;;;;5024149;28;20491;-47
2021/03/21 10:49:44;;;;;;;4.97;3.73;;;4.10;94.60;;;;;;5023557;28;20449;-47
2021/03/21 10:52:31;;;;;;;8.80;3.83;;;4.30;95.20;;;;;;5029102;28;20583;-47
2021/03/21 10:55:40;;;;;;;4.97;3.40;;;4.30;94.30;;;;;;5017712;28;20492;-48
2021/03/21 10:58:39;;;;;;;7.03;3.97;;;4.10;93.60;;;;;;5020923;28;20495;-46
2021/03/21 11:01:32;;;;;;;7.37;4.17;;;4.10;92.90;;;;;;5024903;28;20470;-47
2021/03/21 11:04:17;;;;;;;8.10;4.20;;;4.40;94.10;;;;;;5020917;28;20468;-47
2021/03/21 11:06:52;;;;;;;4.37;3.00;;;4.50;93.60;;;;;;5026159;28;20534;-47
2021/03/21 11:09:21;;;;;;;5.47;3.50;;;4.60;93.90;;;;;;5022315;28;20452;-47
2021/03/21 11:11:49;;;;;;;10.37;4.27;;;4.60;93.40;;;;;;5028456;28;20489;-46
2021/03/21 11:14:21;;;;;;;6.17;3.70;;;4.50;92.60;;;;;;5021693;28;20452;-47
2021/03/21 11:16:53;;;;;;;5.07;3.47;;;4.60;94.40;;;;;;5023089;28;20484;-47
2021/03/21 11:19:22;;;;;;;4.60;3.40;;;4.70;93.50;;;;;;5027459;28;20525;-47
2021/03/21 11:21:49;;;;;;;5.73;3.40;;;4.70;93.40;;;;;;5022350;28;21299;-47
2021/03/21 11:24:31;;;;;;;5.13;3.83;;;4.70;93.70;;;;;;5017817;28;20463;-47
2021/03/21 11:26:58;;;;;;;6.77;3.87;;;4.80;95.00;;;;;;5012949;28;20468;-47
2021/03/21 11:29:34;;;;;;;6.60;3.67;;;4.70;94.40;;;;;;5019958;28;20981;-47
2021/03/21 11:32:13;;;;;;;5.43;3.50;;;4.30;96.20;;;;;;5025597;28;20487;-47
2021/03/21 11:34:40;;;;;;;4.60;3.50;;;4.10;96.80;;;;;;5011268;28;20461;-47
2021/03/21 11:37:10;;;;;;;5.53;3.50;;;4.10;96.00;;;;;;5010658;28;20479;-47
2021/03/21 11:39:39;;;;;;;5.07;3.20;;;4.20;94.70;;;;;;5011559;28;20830;-47
2021/03/21 11:42:22;;;;;;;5.33;3.50;;;4.10;92.80;;;;;;5010354;28;21017;-47
2021/03/21 11:44:51;;;;;;;3.23;2.50;;;4.10;92.60;;;;;;5042890;28;20451;-46
2021/03/21 11:47:29;;;;;;;4.73;3.53;;;4.40;92.90;;;;;;5031210;28;20488;-47
2021/03/21 11:49:59;;;;;;;4.40;3.27;;;4.60;92.60;;;;;;5010526;28;20464;-47
2021/03/21 11:52:28;;;;;;;4.43;2.90;;;4.80;94.10;;;;;;5010032;28;20520;-47
2021/03/21 11:54:54;;;;;;;3.10;2.60;;;4.70;95.10;;;;;;5023965;28;20454;-46
2021/03/21 11:57:35;;;;;;;3.90;2.60;;;4.80;93.90;;;;;;5010439;28;20481;-47
2021/03/21 12:00:12;;;;;;;4.50;2.70;;;4.70;94.50;;;;;;5011285;28;20510;-47
2021/03/21 12:02:45;;;;;;;7.30;3.10;;;4.50;95.00;;;;;;5025433;28;20479;-47
2021/03/21 12:05:17;;;;;;;4.27;3.10;;;4.30;96.10;;;;;;5018933;28;20458;-47
2021/03/21 12:07:44;;;;;;;6.90;4.33;;;4.50;95.40;;;;;;5019617;28;20802;-47
2021/03/21 12:10:27;;;;;;;7.57;3.30;;;4.60;96.60;;;;;;5025610;28;20503;-47
2021/03/21 12:12:54;;;;;;;5.60;3.20;;;4.80;96.60;;;;;;5017691;28;20591;-47
2021/03/21 12:15:38;;;;;;;8.30;3.87;;;4.70;97.60;;;;;;5016004;28;20464;-47
2021/03/21 12:18:06;;;;;;;5.67;3.33;;;4.70;96.80;;;;;;5029005;28;20997;-47
2021/03/21 12:20:42;;;;;;;4.73;2.90;;;4.30;97.10;;;;;;5029157;28;20449;-48
2021/03/21 12:23:39;;;;;;;5.25;3.70;;;4.30;96.60;;;;;;5021045;28;20814;-47
2021/03/21 12:26:19;;;;;;;4.33;2.90;;;4.50;97.70;;;;;;5012563;28;20738;-47
2021/03/21 12:29:01;;;;;;;7.80;4.87;;;4.40;98.40;;;;;;5014743;28;20501;-47
2021/03/21 12:31:34;;;;;;;7.93;3.67;;;4.10;97.80;;;;;;5029255;28;20472;-48
2021/03/21 12:34:37;;;;;;;6.40;4.10;;;4.00;97.70;;;;;;5025913;28;20946;-47
2021/03/21 12:37:07;;;;;;;4.97;3.20;;;4.20;98.50;;;;;;5033330;28;20519;-47
2021/03/21 12:39:36;;;;;;;6.30;3.83;;;4.40;99.10;;;;;;5016459;28;20457;-47
2021/03/21 12:42:03;;;;;;;14.20;9.57;;;4.50;98.50;;;;;;5016797;28;20479;-47
2021/03/21 12:44:31;;;;;;;8.93;4.80;;;4.60;98.70;;;;;;5029193;28;20825;-47
2021/03/21 12:47:04;;;;;;;6.13;3.50;;;4.50;99.60;;;;;;5013688;28;20449;-48
2021/03/21 12:49:47;;;;;;;5.00;3.63;;;4.50;99.90;;;;;;5013744;28;20514;-47
2021/03/21 12:52:17;;;;;;;5.73;3.50;;;4.20;99.90;;;;;;5020821;28;20860;-47
2021/03/21 12:54:46;;;;;;;5.83;3.50;;;4.10;99.90;;;;;;5014061;28;20522;-47
2021/03/21 12:57:14;;;;;;;7.10;4.10;;;4.00;99.90;;;;;;5015425;28;20570;-46
2021/03/21 12:59:44;;;;;;;5.53;3.40;;;4.00;99.90;;;;;;5033384;28;20535;-47
2021/03/21 13:02:30;;;;;;;5.47;3.50;;;3.90;99.90;;;;;;5030890;28;20917;-47
2021/03/21 13:04:58;;;;;;;5.40;4.00;;;3.80;99.90;;;;;;5019669;28;20464;-47
2021/03/21 13:07:26;;;;;;;5.47;3.43;;;3.90;99.90;;;;;;5033686;28;20448;-47
2021/03/21 13:09:54;;;;;;;6.20;5.10;;;4.00;99.90;;;;;;5033547;28;20449;-47
2021/03/21 13:12:21;;;;;;;5.13;3.87;;;4.10;99.90;;;;;;5027237;28;20473;-48
2021/03/21 13:14:48;;;;;;;6.20;3.40;;;4.00;99.90;;;;;;5033025;28;20844;-47
2021/03/21 13:17:14;;;;;;;4.63;3.23;;;4.00;99.90;;;;;;5014051;28;20539;-47
2021/03/21 13:19:42;;;;;;;5.83;3.23;;;3.80;99.90;;;;;;5013315;28;20840;-47
2021/03/21 13:22:09;;;;;;;6.43;3.40;;;3.60;99.90;;;;;;5041465;22;20518;-50
2021/03/21 13:24:37;;;;;;;7.70;4.20;;;3.80;99.90;;;;;;5039393;28;20826;-50
2021/03/21 13:27:04;;;;;;;6.23;3.40;;;3.80;99.90;;;;;;5039304;28;20449;-51
2021/03/21 13:29:32;;;;;;;5.43;3.40;;;3.70;99.90;;;;;;5032795;28;20875;-50
2021/03/21 13:31:59;;;;;;;5.90;3.70;;;3.70;99.90;;;;;;5026434;28;20452;-50
2021/03/21 13:34:28;;;;;;;7.53;4.13;;;3.70;99.90;;;;;;5032742;28;20444;-50
2021/03/21 13:36:56;;;;;;;7.47;4.07;;;3.80;99.90;;;;;;5032203;28;20480;-50
2021/03/21 13:39:23;;;;;;;6.73;3.50;;;3.70;99.90;;;;;;5033052;28;20506;-49
2021/03/21 13:41:50;;;;;;;6.10;3.60;;;3.90;99.90;;;;;;5031268;28;20467;-50
2021/03/21 13:44:18;;;;;;;5.83;3.90;;;3.90;99.90;;;;;;5032576;28;20977;-51